createdAt,value
2018-07-11T00:01:05.376Z,10.30
2018-07-11T00:03:44.480Z,11.20
2018-07-11T00:06:13.610Z,10.23
2018-07-11T00:08:42.159Z,10.27
2018-07-11T00:11:11.592Z,11.53
2018-07-11T00:13:41.197Z,10.93
2018-07-11T00:16:12.592Z,11.73
2018-07-11T00:18:41.216Z,9.90
2018-07-11T00:21:10.164Z,10.30
2018-07-11T00:23:38.854Z,9.27
2018-07-11T00:26:08.605Z,10.03
2018-07-11T00:28:37.185Z,9.73
2018-07-11T00:31:06.057Z,9.53
2018-07-11T00:33:34.608Z,9.83
2018-07-11T00:36:03.287Z,9.47
2018-07-11T00:38:32.233Z,10.17
2018-07-11T00:41:01.397Z,10.63
2018-07-11T00:43:32.421Z,9.67
2018-07-11T00:46:01.462Z,10.27
2018-07-11T00:48:30.165Z,9.53
2018-07-11T00:50:59.531Z,11.40
2018-07-11T00:53:31.407Z,10.43
2018-07-11T00:56:00.653Z,10.37
2018-07-11T00:58:31.346Z,10.57
2018-07-11T01:01:15.450Z,10.60
2018-07-11T01:03:49.783Z,11.13
2018-07-11T01:06:18.926Z,10.17
2018-07-11T01:08:48.637Z,10.13
2018-07-11T01:11:17.895Z,11.03
2018-07-11T01:13:47.809Z,10.47
2018-07-11T01:16:18.396Z,10.30
2018-07-11T01:19:08.037Z,10.63
2018-07-11T01:21:37.269Z,10.50
2018-07-11T01:24:05.836Z,11.73
2018-07-11T01:26:39.440Z,10.53
2018-07-11T01:29:08.490Z,10.37
2018-07-11T01:31:37.671Z,9.58
2018-07-11T01:34:06.322Z,9.97
2018-07-11T01:36:34.796Z,10.27
2018-07-11T01:39:03.684Z,10.37
2018-07-11T01:41:32.311Z,10.23
2018-07-11T01:44:01.921Z,9.80
2018-07-11T01:46:39.787Z,9.27
2018-07-11T01:49:08.389Z,11.00
2018-07-11T01:52:45.677Z,9.77
2018-07-11T01:55:14.637Z,9.70
2018-07-11T01:57:43.283Z,9.13
2018-07-11T02:00:12.068Z,9.63
2018-07-11T02:02:40.718Z,9.50
2018-07-11T02:05:09.357Z,9.83
2018-07-11T02:07:38.751Z,10.55
2018-07-11T02:10:07.419Z,8.37
2018-07-11T02:12:36.615Z,9.50
2018-07-11T02:15:06.136Z,9.37
2018-07-11T02:17:37.063Z,9.30
2018-07-11T02:20:07.527Z,11.83
2018-07-11T02:22:37.954Z,10.60
2018-07-11T02:25:06.493Z,10.13
2018-07-11T02:27:35.232Z,8.93
2018-07-11T02:30:04.229Z,8.60
2018-07-11T02:32:33.694Z,9.03
2018-07-11T02:35:02.339Z,8.60
2018-07-11T02:37:31.008Z,8.87
2018-07-11T02:39:59.626Z,9.43
2018-07-11T02:42:28.377Z,8.47
2018-07-11T02:44:56.930Z,10.37
2018-07-11T02:47:30.760Z,9.43
2018-07-11T02:49:59.274Z,9.63
2018-07-11T02:52:27.959Z,8.93
2018-07-11T02:54:57.371Z,9.20
2018-07-11T02:57:26.113Z,9.57
2018-07-11T02:59:54.647Z,9.53
2018-07-11T03:02:23.156Z,11.40
2018-07-11T03:04:51.731Z,10.23
2018-07-11T03:07:20.265Z,11.03
2018-07-11T03:09:48.823Z,9.67
2018-07-11T03:12:17.354Z,10.73
2018-07-11T03:14:49.662Z,9.93
2018-07-11T03:17:18.188Z,11.53
2018-07-11T03:19:46.752Z,9.90
2018-07-11T03:22:15.798Z,9.80
2018-07-11T03:24:44.500Z,9.87
2018-07-11T03:27:13.339Z,9.93
2018-07-11T03:29:41.981Z,10.90
2018-07-11T03:32:10.729Z,13.07
2018-07-11T03:34:39.207Z,10.80
2018-07-11T03:37:07.992Z,12.67
2018-07-11T03:39:36.617Z,11.60
2018-07-11T03:42:05.329Z,11.33
2018-07-11T03:44:33.957Z,11.27
2018-07-11T03:47:02.654Z,12.57
2018-07-11T03:49:31.375Z,12.37
2018-07-11T03:51:59.946Z,12.93
2018-07-11T03:54:28.509Z,11.40
2018-07-11T03:56:57.385Z,11.13
2018-07-11T03:59:25.995Z,11.17
2018-07-11T04:01:55.339Z,11.93
2018-07-11T04:04:23.998Z,12.03
2018-07-11T04:06:52.697Z,12.20
2018-07-11T04:09:21.345Z,13.57
2018-07-11T04:11:50.079Z,13.33
2018-07-11T04:14:18.760Z,16.93
2018-07-11T04:16:47.503Z,13.37
2018-07-11T04:19:16.102Z,12.97
2018-07-11T04:21:44.949Z,15.47
2018-07-11T04:24:14.163Z,12.77
2018-07-11T04:26:42.971Z,14.00
2018-07-11T04:29:12.017Z,14.97
2018-07-11T04:31:40.586Z,15.60
2018-07-11T04:34:09.546Z,14.17
2018-07-11T04:36:38.178Z,12.97
2018-07-11T04:39:06.618Z,14.30
2018-07-11T04:41:35.136Z,12.20
2018-07-11T04:44:04.341Z,13.37
2018-07-11T04:46:32.930Z,16.77
2018-07-11T04:49:01.891Z,15.17
2018-07-11T04:51:30.582Z,16.20
2018-07-11T04:53:59.233Z,13.23
2018-07-11T04:56:28.008Z,12.53
2018-07-11T04:58:57.393Z,14.25
2018-07-11T05:01:25.862Z,12.80
2018-07-11T05:03:54.441Z,15.87
2018-07-11T05:06:23.360Z,15.33
2018-07-11T05:08:52.042Z,13.83
2018-07-11T05:11:20.580Z,15.00
2018-07-11T05:13:49.126Z,15.57
2018-07-11T05:16:17.738Z,13.07
2018-07-11T05:18:47.023Z,16.30
2018-07-11T05:21:16.487Z,17.17
2018-07-11T05:23:45.361Z,15.47
2018-07-11T05:26:14.173Z,14.07
2018-07-11T05:29:12.267Z,14.20
2018-07-11T05:31:40.891Z,17.13
2018-07-11T05:34:10.304Z,16.87
2018-07-11T05:36:38.738Z,21.00
2018-07-11T05:39:08.054Z,16.53
2018-07-11T05:41:36.569Z,14.87
2018-07-11T05:44:05.255Z,19.23
2018-07-11T05:46:33.843Z,15.80
2018-07-11T05:49:02.788Z,16.30
2018-07-11T05:51:31.448Z,18.37
2018-07-11T05:54:00.253Z,18.97
2018-07-11T05:56:29.146Z,20.67
2018-07-11T05:58:57.997Z,17.27
2018-07-11T06:01:26.577Z,15.83
2018-07-11T06:03:55.121Z,17.80
2018-07-11T06:06:23.718Z,19.67
2018-07-11T06:08:52.301Z,19.27
2018-07-11T06:11:22.381Z,19.27
2018-07-11T06:13:51.815Z,19.87
2018-07-11T06:16:21.310Z,17.30
2018-07-11T06:18:50.691Z,21.83
2018-07-11T06:21:21.076Z,18.00
2018-07-11T06:23:52.006Z,16.40
2018-07-11T06:26:21.110Z,17.83
2018-07-11T06:28:50.222Z,17.40
2018-07-11T06:31:18.863Z,18.33
2018-07-11T06:33:47.645Z,18.03
2018-07-11T06:36:16.557Z,17.47
2018-07-11T06:38:45.181Z,16.97
2018-07-11T06:41:13.806Z,17.97
2018-07-11T06:43:42.405Z,18.33
2018-07-11T06:46:11.926Z,17.53
2018-07-11T06:48:40.590Z,17.13
2018-07-11T06:51:09.659Z,18.53
2018-07-11T06:53:38.310Z,17.47
2018-07-11T06:56:07.008Z,17.63
2018-07-11T06:58:35.465Z,17.87
2018-07-11T07:01:04.871Z,18.03
2018-07-11T07:03:33.578Z,17.40
2018-07-11T07:06:02.164Z,16.83
2018-07-11T07:08:30.870Z,16.87
2018-07-11T07:11:00.449Z,16.33
2018-07-11T07:13:30.948Z,18.87
2018-07-11T07:15:59.563Z,20.67
2018-07-11T07:18:39.436Z,19.47
2018-07-11T07:21:07.952Z,17.93
2018-07-11T07:23:36.647Z,18.67
2018-07-11T07:26:05.641Z,18.27
2018-07-11T07:28:34.588Z,17.63
2018-07-11T07:31:03.859Z,18.47
2018-07-11T07:33:34.352Z,20.53
2018-07-11T07:36:03.970Z,17.73
2018-07-11T07:38:39.996Z,18.97
2018-07-11T07:41:10.452Z,18.27
2018-07-11T07:43:42.239Z,19.17
2018-07-11T07:46:10.868Z,17.60
2018-07-11T07:48:39.824Z,18.67
2018-07-11T07:51:08.326Z,20.07
2018-07-11T07:53:36.966Z,18.77
2018-07-11T07:56:07.027Z,19.93
2018-07-11T07:58:36.662Z,22.33
2018-07-11T08:01:05.258Z,22.67
2018-07-11T08:03:35.632Z,23.63
2018-07-11T08:06:04.253Z,28.20
2018-07-11T08:08:33.897Z,26.53
2018-07-11T08:11:02.585Z,29.43
2018-07-11T08:13:31.129Z,28.77
2018-07-11T08:15:59.708Z,26.93
2018-07-11T08:18:29.088Z,26.20
2018-07-11T08:20:57.675Z,29.37
2018-07-11T08:23:39.950Z,26.83
2018-07-11T08:26:19.804Z,26.27
2018-07-11T08:29:03.925Z,25.73
2018-07-11T08:31:44.107Z,24.13
2018-07-11T08:34:57.584Z,25.27
2018-07-11T08:37:35.129Z,25.60
2018-07-11T08:40:19.809Z,27.73
2018-07-11T08:43:29.136Z,27.43
2018-07-11T08:49:11.150Z,26.23
2018-07-11T08:52:02.158Z,22.03
2018-07-11T08:54:41.938Z,21.57
2018-07-11T08:58:22.227Z,23.47
2018-07-11T09:01:05.471Z,20.60
2018-07-11T09:04:41.047Z,21.63
2018-07-11T09:07:16.411Z,19.80
2018-07-11T09:10:00.861Z,20.47
2018-07-11T09:13:00.531Z,19.93
2018-07-11T09:16:16.247Z,21.50
2018-07-11T09:19:51.873Z,20.63
2018-07-11T09:24:41.078Z,22.30
2018-07-11T09:27:10.348Z,19.27
2018-07-11T09:29:39.814Z,21.33
2018-07-11T09:32:08.393Z,20.23
2018-07-11T09:34:36.911Z,17.57
2018-07-11T09:37:05.455Z,18.77
2018-07-11T09:39:34.017Z,16.67
2018-07-11T09:42:04.514Z,13.90
2018-07-11T09:44:33.800Z,12.63
2018-07-11T09:47:06.570Z,13.40
2018-07-11T09:49:36.318Z,9.60
2018-07-11T09:52:05.254Z,8.73
2018-07-11T09:54:33.864Z,8.00
2018-07-11T09:57:02.557Z,6.97
2018-07-11T09:59:31.711Z,5.37
2018-07-11T10:02:00.340Z,5.87
2018-07-11T10:04:29.909Z,5.40
2018-07-11T10:06:59.312Z,5.50
2018-07-11T10:09:29.982Z,5.10
2018-07-11T10:11:58.764Z,5.70
2018-07-11T10:14:27.539Z,5.93
2018-07-11T10:16:56.124Z,6.27
2018-07-11T10:19:25.183Z,6.43
2018-07-11T10:21:53.818Z,5.33
2018-07-11T10:24:22.449Z,4.77
2018-07-11T10:26:51.811Z,4.80
2018-07-11T10:29:20.917Z,4.30
2018-07-11T10:31:49.377Z,4.40
2018-07-11T10:34:18.341Z,4.30
2018-07-11T10:36:47.606Z,4.87
2018-07-11T10:39:16.190Z,4.93
2018-07-11T10:41:44.891Z,4.30
2018-07-11T10:44:13.574Z,3.67
2018-07-11T10:46:42.143Z,4.30
2018-07-11T10:49:10.810Z,4.90
2018-07-11T10:51:39.823Z,4.60
2018-07-11T10:54:08.517Z,4.27
2018-07-11T10:56:37.128Z,4.63
2018-07-11T10:59:05.935Z,4.80
2018-07-11T11:01:34.557Z,4.30
2018-07-11T11:04:03.050Z,4.63
2018-07-11T11:06:31.993Z,4.27
2018-07-11T11:09:00.671Z,4.47
2018-07-11T11:11:29.519Z,3.90
2018-07-11T11:13:58.693Z,3.97
2018-07-11T11:16:27.286Z,4.20
2018-07-11T11:18:55.879Z,4.40
2018-07-11T11:22:54.695Z,4.60
2018-07-11T11:25:23.717Z,4.40
2018-07-11T11:27:52.386Z,4.87
2018-07-11T11:30:21.143Z,4.63
2018-07-11T11:32:50.061Z,4.30
2018-07-11T11:35:18.720Z,3.63
2018-07-11T11:37:47.586Z,4.10
2018-07-11T11:40:16.312Z,4.13
2018-07-11T11:42:45.855Z,3.77
2018-07-11T11:45:15.436Z,3.70
2018-07-11T11:47:44.518Z,3.83
2018-07-11T11:50:13.160Z,3.90
2018-07-11T11:52:41.707Z,4.20
2018-07-11T11:55:10.283Z,3.87
2018-07-11T11:57:38.955Z,3.47
2018-07-11T12:00:07.787Z,3.33
2018-07-11T12:02:36.385Z,3.47
2018-07-11T12:05:04.983Z,3.30
2018-07-11T12:07:33.530Z,3.50
2018-07-11T12:10:02.182Z,3.40
2018-07-11T12:12:30.977Z,3.43
2018-07-11T12:14:59.878Z,3.90
2018-07-11T12:17:28.542Z,3.60
2018-07-11T12:19:57.097Z,3.50
2018-07-11T12:22:26.705Z,4.17
2018-07-11T12:24:55.467Z,4.33
2018-07-11T12:27:25.230Z,3.30
2018-07-11T12:29:54.833Z,3.60
2018-07-11T12:32:23.702Z,4.20
2018-07-11T12:34:52.509Z,4.53
2018-07-11T12:37:23.096Z,3.53
2018-07-11T12:39:51.996Z,3.80
2018-07-11T12:42:21.612Z,3.30
2018-07-11T12:44:51.083Z,3.27
2018-07-11T12:47:24.937Z,3.63
2018-07-11T12:49:53.483Z,3.80
2018-07-11T12:52:23.356Z,3.53
2018-07-11T12:54:52.568Z,3.70
2018-07-11T12:57:21.639Z,3.50
2018-07-11T12:59:50.694Z,3.47
2018-07-11T13:02:19.528Z,2.90
2018-07-11T13:04:48.425Z,3.40
2018-07-11T13:07:17.096Z,3.40
2018-07-11T13:09:45.856Z,3.07
2018-07-11T13:12:14.540Z,3.20
2018-07-11T13:14:43.213Z,3.07
2018-07-11T13:17:11.806Z,3.40
2018-07-11T13:19:40.539Z,3.70
2018-07-11T13:22:09.896Z,3.40
2018-07-11T13:24:39.095Z,3.30
2018-07-11T13:27:08.336Z,4.07
2018-07-11T13:29:37.030Z,3.70
2018-07-11T13:32:05.788Z,2.87
2018-07-11T13:34:35.236Z,3.13
2018-07-11T13:37:04.137Z,4.30
2018-07-11T13:39:32.904Z,3.73
2018-07-11T13:42:01.735Z,3.60
2018-07-11T13:44:31.241Z,3.80
2018-07-11T13:46:59.983Z,3.83
2018-07-11T13:49:29.120Z,3.77
2018-07-11T13:51:57.830Z,3.60
2018-07-11T13:54:28.705Z,3.30
2018-07-11T13:56:57.545Z,3.30
2018-07-11T13:59:26.223Z,3.40
2018-07-11T14:01:55.070Z,3.87
2018-07-11T14:04:23.708Z,4.10
2018-07-11T14:06:52.481Z,3.83
2018-07-11T14:09:21.180Z,3.57
2018-07-11T14:11:49.992Z,3.27
2018-07-11T14:14:18.661Z,3.73
2018-07-11T14:16:47.367Z,4.10
2018-07-11T14:19:15.972Z,4.53
2018-07-11T14:21:44.943Z,4.00
2018-07-11T14:24:15.341Z,4.90
2018-07-11T14:26:44.714Z,4.50
2018-07-11T14:29:13.666Z,4.20
2018-07-11T14:31:42.987Z,4.20
2018-07-11T14:34:13.861Z,3.60
2018-07-11T14:36:43.437Z,4.23
2018-07-11T14:39:13.505Z,4.13
2018-07-11T14:41:42.106Z,4.00
2018-07-11T14:44:11.750Z,4.50
2018-07-11T14:46:40.338Z,4.50
2018-07-11T14:49:09.115Z,4.50
2018-07-11T14:51:38.606Z,4.33
2018-07-11T14:54:09.234Z,3.83
2018-07-11T14:56:38.377Z,4.57
2018-07-11T14:59:08.086Z,4.13
2018-07-11T15:01:37.694Z,3.83
2018-07-11T15:04:07.692Z,4.87
2018-07-11T15:06:38.129Z,3.97
2018-07-11T15:09:09.035Z,4.40
2018-07-11T15:11:38.751Z,4.13
2018-07-11T15:14:09.343Z,3.63
2018-07-11T15:16:39.501Z,4.43
2018-07-11T15:19:08.732Z,4.13
2018-07-11T15:21:37.968Z,3.83
2018-07-11T15:24:07.038Z,3.93
2018-07-11T15:26:36.840Z,4.37
2018-07-11T15:29:06.550Z,4.03
2018-07-11T15:31:35.467Z,4.03
2018-07-11T15:34:05.635Z,4.60
2018-07-11T15:36:34.722Z,3.87
2018-07-11T15:39:05.942Z,4.30
2018-07-11T15:41:35.929Z,4.30
2018-07-11T15:44:07.140Z,4.37
2018-07-11T15:46:36.492Z,4.10
2018-07-11T15:49:05.746Z,4.60
2018-07-11T15:51:37.578Z,4.80
2018-07-11T15:54:06.893Z,4.07
2018-07-11T15:56:35.877Z,6.07
2018-07-11T15:59:08.581Z,5.93
2018-07-11T16:01:45.836Z,5.33
2018-07-11T16:04:20.279Z,5.60
2018-07-11T16:06:48.907Z,5.20
2018-07-11T16:09:17.957Z,5.87
2018-07-11T16:11:46.711Z,5.60
2018-07-11T16:14:15.977Z,5.33
2018-07-11T16:16:44.536Z,6.07
2018-07-11T16:19:13.307Z,6.20
2018-07-11T16:21:46.653Z,7.93
2018-07-11T16:24:15.316Z,9.87
2018-07-11T16:26:43.866Z,10.17
2018-07-11T16:29:12.472Z,10.03
2018-07-11T16:31:41.645Z,9.93
2018-07-11T16:34:10.222Z,9.17
2018-07-11T16:36:39.869Z,9.63
2018-07-11T16:39:09.717Z,8.50
2018-07-11T16:41:39.192Z,6.53
2018-07-11T16:44:13.240Z,7.77
2018-07-11T16:46:42.773Z,6.93
2018-07-11T16:49:11.394Z,7.20
2018-07-11T16:51:40.346Z,8.33
2018-07-11T16:54:09.396Z,8.10
2018-07-11T16:56:38.602Z,6.97
2018-07-11T16:59:07.524Z,6.13
2018-07-11T17:01:44.496Z,5.87
2018-07-11T17:04:16.119Z,6.80
2018-07-11T17:06:45.032Z,7.13
2018-07-11T17:09:14.031Z,7.47
2018-07-11T17:11:42.657Z,8.20
2018-07-11T17:14:11.831Z,8.40
2018-07-11T17:16:45.896Z,7.63
2018-07-11T17:19:23.980Z,9.73
2018-07-11T17:21:53.526Z,9.60
2018-07-11T17:24:22.958Z,7.90
2018-07-11T17:26:55.596Z,7.77
2018-07-11T17:29:28.931Z,7.17
2018-07-11T17:32:06.585Z,6.17
2018-07-11T17:34:37.692Z,5.10
2018-07-11T17:37:07.875Z,7.07
2018-07-11T17:40:10.461Z,6.30
2018-07-11T17:42:41.315Z,8.95
2018-07-11T17:45:13.185Z,6.50
2018-07-11T17:48:08.717Z,6.80
2018-07-11T17:50:38.926Z,6.87
2018-07-11T17:53:17.645Z,7.20
2018-07-11T17:55:56.515Z,7.27
2018-07-11T17:58:38.479Z,7.10
2018-07-11T18:01:07.788Z,6.90
2018-07-11T18:03:42.023Z,6.93
2018-07-11T18:06:23.260Z,6.87
2018-07-11T18:09:16.107Z,6.63
2018-07-11T18:11:54.416Z,6.70
2018-07-11T18:15:31.952Z,6.17
2018-07-11T18:18:11.635Z,5.80
2018-07-11T18:20:52.125Z,5.90
2018-07-11T18:24:37.786Z,6.03
2018-07-11T18:28:17.074Z,5.83
2018-07-11T18:30:57.466Z,5.63
2018-07-11T18:36:11.201Z,6.23
2018-07-11T18:38:55.191Z,6.20
2018-07-11T18:42:29.759Z,6.03
2018-07-11T18:45:04.318Z,5.67
2018-07-11T18:47:40.675Z,6.23
2018-07-11T18:52:30.010Z,5.77
2018-07-11T18:55:12.128Z,5.60
2018-07-11T18:59:53.878Z,5.80
2018-07-11T19:02:34.357Z,5.50
2018-07-11T19:05:39.242Z,6.40
2018-07-11T19:08:45.528Z,6.87
2018-07-11T19:11:23.338Z,6.90
2018-07-11T19:13:54.175Z,6.23
2018-07-11T19:16:34.002Z,6.60
2018-07-11T19:19:11.644Z,6.87
2018-07-11T19:22:02.312Z,6.77
2018-07-11T19:24:42.147Z,7.20
2018-07-11T19:27:23.751Z,7.03
2018-07-11T19:30:12.670Z,6.77
2018-07-11T19:33:49.927Z,6.60
2018-07-11T19:36:35.797Z,6.93
2018-07-11T19:39:09.966Z,6.53
2018-07-11T19:41:51.282Z,6.93
2018-07-11T19:44:44.778Z,7.27
2018-07-11T19:48:29.838Z,8.17
2018-07-11T19:51:08.951Z,7.87
2018-07-11T19:53:47.098Z,7.73
2018-07-11T19:56:34.134Z,7.97
2018-07-11T19:59:04.137Z,9.07
2018-07-11T20:01:32.984Z,10.13
2018-07-11T20:04:03.013Z,9.90
2018-07-11T20:06:33.699Z,12.13
2018-07-11T20:09:04.868Z,11.07
2018-07-11T20:11:33.558Z,11.53
2018-07-11T20:14:02.625Z,11.03
2018-07-11T20:16:31.256Z,12.00
2018-07-11T20:19:00.552Z,12.87
2018-07-11T20:21:31.222Z,11.80
2018-07-11T20:24:00.030Z,11.70
2018-07-11T20:26:29.556Z,12.90
2018-07-11T20:28:58.517Z,12.20
2018-07-11T20:31:27.189Z,12.47
2018-07-11T20:33:55.783Z,12.27
2018-07-11T20:36:24.581Z,11.17
2018-07-11T20:38:54.174Z,12.20
2018-07-11T20:41:22.919Z,12.00
2018-07-11T20:43:53.514Z,11.23
2018-07-11T20:46:23.205Z,13.53
2018-07-11T20:48:52.076Z,13.00
2018-07-11T20:51:20.816Z,12.20
2018-07-11T20:53:49.572Z,12.07
2018-07-11T20:56:18.197Z,11.60
2018-07-11T20:58:57.917Z,14.03
2018-07-11T21:01:38.411Z,12.90
2018-07-11T21:05:18.862Z,11.90
2018-07-11T21:10:04.236Z,11.33
2018-07-11T21:12:46.205Z,12.17
2018-07-11T21:15:41.701Z,11.87
2018-07-11T21:19:19.556Z,12.33
2018-07-11T21:21:48.192Z,12.23
2018-07-11T21:24:17.978Z,13.20
2018-07-11T21:26:47.574Z,12.17
2018-07-11T21:29:17.857Z,12.60
2018-07-11T21:31:46.996Z,12.13
2018-07-11T21:34:15.558Z,10.23
2018-07-11T21:36:44.684Z,10.67
2018-07-11T21:39:13.839Z,12.43
2018-07-11T21:41:43.772Z,13.13
2018-07-11T21:44:13.638Z,14.17
2018-07-11T21:46:42.868Z,14.33
2018-07-11T21:49:11.480Z,14.73
2018-07-11T21:51:40.165Z,15.30
2018-07-11T21:54:09.446Z,14.03
2018-07-11T21:56:38.078Z,15.57
2018-07-11T21:59:06.632Z,14.70
2018-07-11T22:01:35.204Z,14.53
2018-07-11T22:04:03.881Z,15.07
2018-07-11T22:06:32.370Z,15.03
2018-07-11T22:09:01.998Z,15.13
2018-07-11T22:11:31.464Z,14.80
2018-07-11T22:14:01.687Z,14.37
2018-07-11T22:16:31.622Z,14.73
2018-07-11T22:19:00.169Z,16.13
2018-07-11T22:21:27.558Z,15.30
2018-07-11T22:23:54.961Z,14.67
2018-07-11T22:26:23.270Z,14.67
2018-07-11T22:28:50.576Z,14.50
2018-07-11T22:31:17.837Z,14.97
2018-07-11T22:33:45.200Z,15.30
2018-07-11T22:36:12.555Z,16.33
2018-07-11T22:38:39.879Z,15.80
2018-07-11T22:41:07.178Z,16.50
2018-07-11T22:43:35.416Z,14.10
2018-07-11T22:46:03.368Z,14.20
2018-07-11T22:48:30.632Z,15.07
2018-07-11T22:50:57.907Z,16.40
2018-07-11T22:53:25.211Z,16.27
2018-07-11T22:55:52.565Z,15.77
2018-07-11T22:58:20.372Z,14.23
2018-07-11T23:00:48.528Z,13.77
2018-07-11T23:03:16.634Z,14.13
2018-07-11T23:05:44.017Z,14.73
2018-07-11T23:08:12.055Z,13.50
2018-07-11T23:10:39.350Z,14.73
2018-07-11T23:13:07.134Z,15.43
2018-07-11T23:15:34.528Z,15.27
2018-07-11T23:18:01.824Z,14.33
2018-07-11T23:20:29.089Z,15.30
2018-07-11T23:22:57.188Z,15.37
2018-07-11T23:25:24.897Z,14.27
2018-07-11T23:27:52.455Z,15.53
2018-07-11T23:30:19.796Z,15.50
2018-07-11T23:32:48.365Z,15.17
2018-07-11T23:35:15.621Z,16.10
2018-07-11T23:37:42.944Z,17.60
2018-07-11T23:40:10.248Z,17.50
2018-07-11T23:42:38.332Z,18.90
2018-07-11T23:45:05.636Z,18.33
2018-07-11T23:47:33.031Z,18.67
2018-07-11T23:50:00.319Z,18.43
2018-07-11T23:52:27.605Z,16.63
2018-07-11T23:54:54.872Z,18.23
2018-07-11T23:57:22.189Z,20.50
2018-07-11T23:59:49.585Z,19.50
